createdAt,value
2019-06-07T00:00:33.515Z,16.64
2019-06-07T00:02:51.902Z,16.63
2019-06-07T00:05:23.576Z,16.57
2019-06-07T00:07:55.248Z,16.50
2019-06-07T00:10:35.908Z,16.74
2019-06-07T00:13:00.339Z,16.57
2019-06-07T00:15:32.125Z,16.48
2019-06-07T00:18:03.858Z,16.39
2019-06-07T00:20:35.565Z,16.23
2019-06-07T00:23:09.300Z,16.29
2019-06-07T00:25:41.368Z,16.23
2019-06-07T00:28:13.375Z,16.12
2019-06-07T00:30:52.298Z,15.99
2019-06-07T00:33:23.981Z,15.85
2019-06-07T00:35:52.567Z,15.81
2019-06-07T00:38:24.343Z,15.64
2019-06-07T00:40:56.018Z,15.55
2019-06-07T00:43:28.681Z,15.53
2019-06-07T00:46:00.442Z,15.44
2019-06-07T00:48:33.110Z,15.43
2019-06-07T00:51:04.888Z,15.46
2019-06-07T00:53:36.434Z,15.41
2019-06-07T00:56:08.119Z,15.34
2019-06-07T00:58:39.785Z,15.34
2019-06-07T01:01:13.101Z,15.33
2019-06-07T01:03:44.873Z,15.33
2019-06-07T01:06:17.603Z,15.36
2019-06-07T01:08:49.754Z,15.31
2019-06-07T01:11:23.552Z,15.26
2019-06-07T01:13:55.865Z,15.25
2019-06-07T01:16:27.347Z,15.24
2019-06-07T01:18:59.008Z,15.23
2019-06-07T01:21:30.810Z,15.12
2019-06-07T01:24:11.842Z,15.01
2019-06-07T01:26:36.588Z,15.01
2019-06-07T01:29:08.431Z,15.01
2019-06-07T01:31:40.242Z,15.00
2019-06-07T01:34:12.124Z,14.89
2019-06-07T01:36:43.901Z,14.92
2019-06-07T01:39:16.362Z,14.89
2019-06-07T01:41:47.859Z,14.85
2019-06-07T01:44:23.629Z,14.90
2019-06-07T01:46:52.745Z,14.94
2019-06-07T01:49:27.749Z,15.04
2019-06-07T01:51:57.938Z,15.05
2019-06-07T01:57:02.919Z,14.90
2019-06-07T01:59:34.693Z,14.87
2019-06-07T02:02:06.574Z,14.81
2019-06-07T02:04:38.662Z,14.75
2019-06-07T02:07:10.334Z,14.73
2019-06-07T02:09:42.108Z,14.74
2019-06-07T02:12:25.776Z,14.75
2019-06-07T02:14:47.096Z,14.84
2019-06-07T02:17:20.264Z,14.90
2019-06-07T02:19:52.078Z,14.97
2019-06-07T02:22:25.692Z,15.25
2019-06-07T02:25:34.560Z,15.68
2019-06-07T02:27:32.617Z,15.75
2019-06-07T02:30:35.478Z,16.10
2019-06-07T02:32:37.310Z,16.67
2019-06-07T02:35:09.661Z,17.14
2019-06-07T02:37:41.066Z,17.88
2019-06-07T02:40:13.405Z,18.49
2019-06-07T02:42:44.828Z,19.56
2019-06-07T02:45:16.841Z,20.02
2019-06-07T02:47:48.984Z,20.36
2019-06-07T02:50:21.186Z,20.70
2019-06-07T02:52:52.946Z,21.43
2019-06-07T02:55:27.503Z,21.43
2019-06-07T02:57:57.856Z,21.57
2019-06-07T03:01:07.771Z,21.63
2019-06-07T03:03:18.007Z,21.82
2019-06-07T03:05:49.627Z,21.65
2019-06-07T03:08:21.323Z,21.50
2019-06-07T03:10:53.080Z,21.06
2019-06-07T03:13:28.468Z,20.35
2019-06-07T03:15:59.594Z,20.40
2019-06-07T03:18:51.215Z,20.57
2019-06-07T03:21:29.329Z,20.97
2019-06-07T03:24:00.801Z,21.66
2019-06-07T03:26:35.759Z,22.16
2019-06-07T03:29:06.605Z,22.54
2019-06-07T03:31:46.386Z,22.88
2019-06-07T03:34:11.491Z,23.08
2019-06-07T03:36:43.165Z,23.18
2019-06-07T03:39:14.837Z,23.14
2019-06-07T03:42:05.077Z,23.44
2019-06-07T03:44:19.511Z,23.34
2019-06-07T03:46:51.293Z,23.16
2019-06-07T03:49:22.966Z,22.44
2019-06-07T03:51:54.641Z,21.76
2019-06-07T03:54:27.239Z,21.48
2019-06-07T03:56:59.012Z,21.19
2019-06-07T03:59:35.558Z,21.35
2019-06-07T04:02:04.099Z,21.23
2019-06-07T04:04:38.497Z,21.19
2019-06-07T04:07:09.291Z,21.03
2019-06-07T04:09:43.065Z,21.17
2019-06-07T04:12:14.277Z,21.35
2019-06-07T04:14:46.261Z,21.63
2019-06-07T04:17:17.725Z,21.72
2019-06-07T04:19:49.400Z,21.65
2019-06-07T04:22:21.176Z,21.89
2019-06-07T04:24:52.951Z,21.87
2019-06-07T04:27:25.450Z,21.82
2019-06-07T04:30:07.045Z,21.76
2019-06-07T04:32:32.063Z,21.92
2019-06-07T04:35:03.731Z,21.97
2019-06-07T04:37:39.667Z,22.42
2019-06-07T04:40:10.467Z,22.50
2019-06-07T04:42:45.224Z,22.83
2019-06-07T04:45:33.043Z,22.90
2019-06-07T04:47:50.604Z,22.83
2019-06-07T04:50:22.378Z,23.20
2019-06-07T04:52:54.159Z,23.39
2019-06-07T04:55:25.828Z,23.62
2019-06-07T04:57:57.707Z,23.86
2019-06-07T05:00:49.885Z,24.10
2019-06-07T05:03:08.624Z,24.17
2019-06-07T05:05:43.557Z,24.22
2019-06-07T05:08:27.422Z,24.42
2019-06-07T05:10:46.678Z,24.69
2019-06-07T05:13:18.288Z,24.73
2019-06-07T05:15:50.065Z,24.56
2019-06-07T05:18:21.946Z,24.66
2019-06-07T05:20:53.518Z,24.66
2019-06-07T05:25:58.091Z,24.81
2019-06-07T05:28:30.099Z,24.83
2019-06-07T05:31:07.705Z,24.69
2019-06-07T05:33:36.715Z,24.86
2019-06-07T05:36:08.062Z,24.94
2019-06-07T05:38:44.155Z,24.95
2019-06-07T05:41:12.957Z,25.00
2019-06-07T05:43:55.037Z,25.00
2019-06-07T05:46:17.727Z,24.82
2019-06-07T05:48:49.404Z,25.10
2019-06-07T05:51:20.768Z,25.10
2019-06-07T05:53:52.443Z,25.13
2019-06-07T05:56:24.117Z,25.13
2019-06-07T05:58:55.809Z,25.22
2019-06-07T06:01:42.895Z,25.32
2019-06-07T06:04:00.778Z,25.52
2019-06-07T06:06:33.801Z,25.57
2019-06-07T06:09:13.705Z,25.46
2019-06-07T06:11:49.324Z,25.65
2019-06-07T06:14:13.507Z,25.59
2019-06-07T06:16:47.940Z,26.16
2019-06-07T06:19:18.183Z,26.10
2019-06-07T06:21:49.963Z,25.88
2019-06-07T06:24:21.742Z,25.36
2019-06-07T06:27:00.268Z,25.27
2019-06-07T06:29:26.624Z,25.54
2019-06-07T06:34:31.711Z,26.15
2019-06-07T06:37:03.484Z,26.36
2019-06-07T06:39:35.265Z,26.44
2019-06-07T06:42:07.038Z,25.90
2019-06-07T06:44:41.798Z,26.03
2019-06-07T06:47:11.615Z,25.99
2019-06-07T06:49:44.234Z,26.20
2019-06-07T06:52:16.398Z,26.45
2019-06-07T06:54:55.372Z,26.25
2019-06-07T06:57:20.974Z,26.67
2019-06-07T06:59:52.986Z,26.81
2019-06-07T07:02:24.834Z,26.65
2019-06-07T07:04:56.612Z,26.64
2019-06-07T07:07:28.936Z,26.73
2019-06-07T07:10:00.977Z,26.95
2019-06-07T07:12:32.550Z,26.53
2019-06-07T07:15:06.488Z,26.30
2019-06-07T07:17:52.643Z,25.78
2019-06-07T07:20:11.462Z,25.20
2019-06-07T07:22:46.391Z,25.07
2019-06-07T07:25:16.243Z,25.05
2019-06-07T07:27:52.099Z,24.83
2019-06-07T07:30:43.148Z,24.90
2019-06-07T07:33:15.284Z,24.90
2019-06-07T07:36:10.903Z,24.81
2019-06-07T07:38:20.388Z,24.88
2019-06-07T07:41:15.215Z,25.02
2019-06-07T07:43:25.269Z,25.34
2019-06-07T07:46:02.020Z,25.44
2019-06-07T07:48:29.644Z,25.75
2019-06-07T07:51:03.257Z,25.70
2019-06-07T07:53:48.718Z,26.22
2019-06-07T07:56:07.781Z,26.52
2019-06-07T07:58:39.640Z,27.03
2019-06-07T08:01:11.533Z,26.74
2019-06-07T08:03:43.266Z,26.27
2019-06-07T08:06:15.053Z,26.24
2019-06-07T08:08:46.716Z,26.60
2019-06-07T08:11:18.391Z,27.06
2019-06-07T08:13:50.547Z,26.92
2019-06-07T08:16:22.705Z,26.82
2019-06-07T08:19:02.258Z,26.35
2019-06-07T08:21:29.350Z,26.81
2019-06-07T08:24:04.659Z,27.07
2019-06-07T08:26:35.662Z,26.22
2019-06-07T08:29:08.154Z,25.52
2019-06-07T08:31:43.350Z,25.52
2019-06-07T08:34:14.919Z,25.68
2019-06-07T08:36:46.700Z,26.16
2019-06-07T08:39:18.471Z,26.57
2019-06-07T08:42:00.137Z,26.76
2019-06-07T08:44:25.610Z,26.26
2019-06-07T08:47:16.066Z,25.42
2019-06-07T08:49:29.672Z,25.35
2019-06-07T08:52:10.510Z,25.43
2019-06-07T08:54:34.346Z,25.26
2019-06-07T08:57:19.671Z,25.22
2019-06-07T08:59:39.128Z,25.22
2019-06-07T09:02:23.443Z,25.22
2019-06-07T09:04:43.910Z,25.15
2019-06-07T09:07:20.010Z,25.01
2019-06-07T09:09:48.687Z,24.76
2019-06-07T09:12:20.272Z,24.54
2019-06-07T09:15:09.365Z,24.23
2019-06-07T09:17:25.347Z,24.11
2019-06-07T09:19:59.031Z,24.11
2019-06-07T09:22:30.127Z,24.17
2019-06-07T09:25:09.852Z,24.28
2019-06-07T09:27:35.178Z,24.39
2019-06-07T09:30:16.575Z,24.39
2019-06-07T09:32:43.474Z,24.80
2019-06-07T09:35:17.776Z,25.21
2019-06-07T09:38:21.826Z,25.32
2019-06-07T09:40:27.883Z,25.16
2019-06-07T09:43:47.985Z,25.17
2019-06-07T09:45:31.877Z,25.08
2019-06-07T09:48:10.110Z,25.09
2019-06-07T09:50:36.862Z,25.21
2019-06-07T09:53:20.938Z,24.92
2019-06-07T09:55:42.353Z,24.92
2019-06-07T09:58:50.629Z,24.76
2019-06-07T10:00:48.152Z,24.49
2019-06-07T10:03:22.425Z,24.49
2019-06-07T10:05:52.524Z,24.80
2019-06-07T10:09:42.429Z,24.74
2019-06-07T10:10:58.265Z,24.45
2019-06-07T10:13:29.944Z,24.55
2019-06-07T10:16:02.787Z,24.53
2019-06-07T10:18:34.382Z,24.43
2019-06-07T10:21:07.665Z,24.43
2019-06-07T10:23:39.157Z,24.71
2019-06-07T10:26:10.833Z,24.71
2019-06-07T10:28:42.607Z,24.89
2019-06-07T10:31:14.383Z,24.90
2019-06-07T10:33:46.058Z,25.16
2019-06-07T10:36:17.424Z,25.45
2019-06-07T10:38:49.202Z,25.66
2019-06-07T10:41:20.977Z,25.90
2019-06-07T10:43:52.752Z,26.45
2019-06-07T10:46:24.333Z,26.66
2019-06-07T10:48:56.021Z,26.53
2019-06-07T10:51:27.778Z,26.83
2019-06-07T10:53:59.552Z,27.56
2019-06-07T10:56:31.330Z,27.76
2019-06-07T10:59:03.143Z,27.90
2019-06-07T11:01:34.782Z,27.04
2019-06-07T11:04:07.762Z,26.97
2019-06-07T11:06:39.358Z,27.41
2019-06-07T11:09:12.074Z,28.25
2019-06-07T11:11:43.567Z,28.18
2019-06-07T11:14:15.407Z,28.25
2019-06-07T11:16:47.689Z,28.35
2019-06-07T11:19:19.820Z,28.65
2019-06-07T11:21:51.757Z,28.57
2019-06-07T11:24:24.787Z,28.49
2019-06-07T11:26:56.536Z,28.83
2019-06-07T11:29:28.209Z,28.75
2019-06-07T11:31:59.785Z,28.91
2019-06-07T11:34:31.579Z,28.96
2019-06-07T11:37:03.337Z,29.42
2019-06-07T11:39:35.113Z,29.39
2019-06-07T11:42:07.901Z,29.01
2019-06-07T11:44:55.681Z,28.63
2019-06-07T11:47:12.597Z,29.18
2019-06-07T11:49:44.163Z,29.78
2019-06-07T11:52:15.937Z,29.71
2019-06-07T11:54:48.221Z,29.68
2019-06-07T11:57:20.001Z,29.40
2019-06-07T11:59:51.688Z,29.16
2019-06-07T12:02:23.453Z,29.02
2019-06-07T12:04:55.232Z,28.70
2019-06-07T12:07:27.007Z,29.16
2019-06-07T12:09:58.579Z,28.98
2019-06-07T12:12:30.258Z,29.03
2019-06-07T12:15:02.051Z,29.31
2019-06-07T12:17:34.012Z,29.84
2019-06-07T12:20:10.209Z,29.97
2019-06-07T12:22:41.369Z,29.87
2019-06-07T12:25:19.000Z,29.72
2019-06-07T12:27:47.158Z,29.88
2019-06-07T12:30:26.286Z,30.37
2019-06-07T12:32:52.442Z,30.52
2019-06-07T12:35:24.225Z,30.55
2019-06-07T12:37:55.892Z,30.48
2019-06-07T12:40:32.173Z,30.54
2019-06-07T12:43:00.675Z,30.96
2019-06-07T12:45:44.533Z,30.44
2019-06-07T12:48:05.656Z,30.77
2019-06-07T12:50:43.049Z,31.01
2019-06-07T12:53:10.894Z,31.14
2019-06-07T12:55:42.933Z,30.69
2019-06-07T12:58:14.405Z,30.02
2019-06-07T13:00:46.079Z,29.70
2019-06-07T13:03:18.417Z,29.99
2019-06-07T13:05:49.740Z,29.93
2019-06-07T13:08:22.067Z,30.20
2019-06-07T13:10:53.804Z,30.05
2019-06-07T13:13:25.473Z,29.59
2019-06-07T13:15:57.387Z,29.22
2019-06-07T13:18:29.139Z,29.15
2019-06-07T13:21:00.806Z,29.03
2019-06-07T13:23:32.578Z,28.90
2019-06-07T13:26:04.152Z,28.80
2019-06-07T13:28:35.945Z,28.78
2019-06-07T13:31:07.813Z,28.68
2019-06-07T13:33:39.592Z,28.58
2019-06-07T13:36:11.470Z,28.61
2019-06-07T13:38:42.934Z,28.58
2019-06-07T13:41:29.242Z,28.37
2019-06-07T13:43:51.318Z,28.37
2019-06-07T13:46:21.004Z,28.35
2019-06-07T13:48:52.903Z,28.22
2019-06-07T13:51:25.220Z,28.27
2019-06-07T13:53:59.491Z,28.14
2019-06-07T13:56:30.791Z,28.08
2019-06-07T13:59:02.463Z,28.07
2019-06-07T14:01:34.146Z,28.06
2019-06-07T14:04:05.916Z,28.14
2019-06-07T14:06:37.811Z,28.29
2019-06-07T14:09:09.879Z,28.34
2019-06-07T14:11:50.604Z,28.42
2019-06-07T14:14:14.457Z,28.39
2019-06-07T14:16:46.132Z,28.36
2019-06-07T14:19:17.938Z,28.25
2019-06-07T14:21:49.476Z,28.10
2019-06-07T14:24:21.357Z,28.01
2019-06-07T14:27:08.474Z,27.69
2019-06-07T14:29:40.361Z,27.23
2019-06-07T14:32:11.720Z,26.63
2019-06-07T14:34:43.498Z,26.26
2019-06-07T14:37:15.282Z,25.80
2019-06-07T14:39:46.849Z,25.39
2019-06-07T14:42:18.642Z,24.43
2019-06-07T14:44:50.400Z,23.07
2019-06-07T14:47:23.686Z,23.07
2019-06-07T14:49:55.282Z,22.86
2019-06-07T14:52:26.851Z,22.81
2019-06-07T14:54:58.329Z,22.87
2019-06-07T14:57:31.125Z,22.84
2019-06-07T15:00:10.899Z,23.12
2019-06-07T15:02:37.904Z,23.24
2019-06-07T15:05:09.722Z,23.34
2019-06-07T15:07:41.399Z,23.47
2019-06-07T15:10:13.586Z,23.62
2019-06-07T15:12:45.156Z,24.02
2019-06-07T15:15:17.141Z,24.21
2019-06-07T15:17:48.810Z,24.29
2019-06-07T15:20:20.385Z,24.95
2019-06-07T15:22:52.160Z,26.82
2019-06-07T15:25:23.840Z,28.61
2019-06-07T15:27:55.511Z,28.77
2019-06-07T15:30:27.500Z,31.26
2019-06-07T15:32:59.912Z,33.00
2019-06-07T15:35:32.178Z,32.79
2019-06-07T15:38:03.952Z,31.06
2019-06-07T15:40:37.421Z,29.43
2019-06-07T15:43:08.728Z,28.17
2019-06-07T15:45:40.505Z,27.44
2019-06-07T15:48:12.088Z,29.16
2019-06-07T15:50:43.854Z,30.61
2019-06-07T15:53:15.527Z,32.41
2019-06-07T15:55:47.302Z,32.41
2019-06-07T15:58:19.096Z,32.10
2019-06-07T16:00:50.876Z,33.44
2019-06-07T16:03:22.430Z,32.42
2019-06-07T16:05:54.115Z,32.69
2019-06-07T16:08:25.780Z,32.35
2019-06-07T16:10:57.558Z,32.22
2019-06-07T16:13:29.334Z,31.84
2019-06-07T16:16:01.120Z,30.70
2019-06-07T16:18:33.167Z,29.70
2019-06-07T16:21:04.865Z,28.99
2019-06-07T16:23:37.762Z,27.88
2019-06-07T16:26:09.342Z,26.78
2019-06-07T16:28:42.455Z,26.22
2019-06-07T16:31:14.117Z,25.86
2019-06-07T16:33:45.796Z,25.51
2019-06-07T16:36:17.468Z,25.37
2019-06-07T16:38:49.247Z,25.18
2019-06-07T16:41:21.033Z,25.02
2019-06-07T16:43:52.696Z,24.94
2019-06-07T16:46:24.375Z,24.69
2019-06-07T16:48:56.059Z,24.68
2019-06-07T16:51:27.824Z,24.62
2019-06-07T16:53:59.600Z,24.61
2019-06-07T16:56:31.372Z,24.59
2019-06-07T16:59:02.952Z,24.44
2019-06-07T17:01:34.735Z,24.49
2019-06-07T17:04:06.396Z,24.34
2019-06-07T17:06:38.175Z,24.16
2019-06-07T17:09:09.949Z,24.05
2019-06-07T17:11:42.362Z,23.91
2019-06-07T17:14:13.813Z,23.76
2019-06-07T17:16:46.011Z,23.59
2019-06-07T17:19:18.592Z,23.59
2019-06-07T17:21:50.269Z,23.48
2019-06-07T17:24:22.047Z,23.30
2019-06-07T17:26:53.821Z,23.19
2019-06-07T17:29:25.595Z,23.12
2019-06-07T17:31:57.269Z,22.99
2019-06-07T17:34:28.846Z,22.99
2019-06-07T17:37:00.525Z,22.98
2019-06-07T17:39:32.296Z,22.87
2019-06-07T17:42:04.075Z,22.72
2019-06-07T17:44:38.199Z,22.56
2019-06-07T17:47:09.875Z,22.42
2019-06-07T17:49:41.795Z,22.34
2019-06-07T17:52:13.632Z,22.26
2019-06-07T17:54:45.907Z,22.24
2019-06-07T17:57:17.389Z,22.24
2019-06-07T17:59:48.961Z,22.20
2019-06-07T18:02:20.844Z,22.13
2019-06-07T18:04:53.519Z,22.09
2019-06-07T18:07:26.797Z,22.06
2019-06-07T18:09:59.538Z,22.01
2019-06-07T18:12:34.712Z,21.99
2019-06-07T18:15:11.503Z,21.94
2019-06-07T18:17:42.856Z,21.90
2019-06-07T18:20:14.733Z,21.89
2019-06-07T18:22:47.027Z,21.88
2019-06-07T18:25:19.366Z,21.85
2019-06-07T18:27:51.096Z,21.89
2019-06-07T18:30:22.965Z,21.95
2019-06-07T18:32:55.120Z,22.03
2019-06-07T18:35:26.825Z,22.04
2019-06-07T18:37:59.660Z,22.09
2019-06-07T18:40:31.406Z,22.14
2019-06-07T18:43:03.290Z,22.09
2019-06-07T18:45:35.156Z,21.98
2019-06-07T18:48:07.244Z,21.89
2019-06-07T18:50:39.025Z,21.82
2019-06-07T18:53:11.243Z,21.73
2019-06-07T18:55:42.683Z,21.64
2019-06-07T18:58:14.450Z,21.53
2019-06-07T19:00:47.310Z,21.42
2019-06-07T19:03:20.714Z,21.30
2019-06-07T19:05:52.227Z,21.30
2019-06-07T19:08:23.599Z,21.29
2019-06-07T19:10:55.375Z,21.18
2019-06-07T19:13:27.052Z,21.08
2019-06-07T19:15:59.693Z,20.94
2019-06-07T19:18:31.425Z,20.84
2019-06-07T19:21:03.199Z,20.78
2019-06-07T19:23:34.878Z,20.79
2019-06-07T19:26:06.652Z,20.76
2019-06-07T19:28:39.554Z,20.79
2019-06-07T19:31:11.330Z,20.72
2019-06-07T19:33:49.228Z,20.66
2019-06-07T19:36:16.522Z,20.59
2019-06-07T19:38:49.221Z,20.46
2019-06-07T19:41:20.687Z,20.38
2019-06-07T19:43:52.361Z,20.37
2019-06-07T19:46:24.037Z,20.35
2019-06-07T19:48:56.553Z,20.37
2019-06-07T19:51:28.202Z,20.34
2019-06-07T19:54:01.642Z,20.35
2019-06-07T19:56:33.218Z,20.31
2019-06-07T19:59:05.425Z,20.29
2019-06-07T20:01:36.741Z,20.20
2019-06-07T20:10:35.221Z,19.88
2019-06-07T20:13:06.643Z,19.86
2019-06-07T20:15:38.422Z,19.91
2019-06-07T20:18:10.200Z,19.85
2019-06-07T20:20:41.768Z,19.81
2019-06-07T20:23:13.451Z,19.82
2019-06-07T20:25:45.541Z,19.93
2019-06-07T20:28:17.454Z,19.95
2019-06-07T20:30:52.189Z,19.94
2019-06-07T20:33:22.601Z,20.01
2019-06-07T20:35:54.267Z,20.10
2019-06-07T20:38:26.047Z,20.18
2019-06-07T20:40:58.948Z,20.16
2019-06-07T20:43:30.517Z,20.16
2019-06-07T20:46:03.515Z,20.07
2019-06-07T20:48:35.606Z,19.96
2019-06-07T20:51:08.675Z,19.94
2019-06-07T20:53:40.395Z,19.98
2019-06-07T20:56:12.063Z,20.01
2019-06-07T20:58:43.939Z,20.20
2019-06-07T21:01:15.719Z,20.15
2019-06-07T21:03:47.497Z,20.16
2019-06-07T21:06:19.270Z,20.18
2019-06-07T21:08:51.051Z,20.07
2019-06-07T21:11:22.623Z,19.96
2019-06-07T21:13:54.291Z,19.97
2019-06-07T21:16:25.966Z,20.07
2019-06-07T21:18:57.749Z,20.05
2019-06-07T21:21:29.523Z,20.01
2019-06-07T21:24:02.472Z,20.09
2019-06-07T21:26:34.101Z,20.06
2019-06-07T21:29:06.982Z,20.07
2019-06-07T21:31:38.877Z,19.96
2019-06-07T21:34:13.720Z,20.13
2019-06-07T21:36:43.663Z,20.20
2019-06-07T21:39:15.438Z,20.25
2019-06-07T21:41:48.137Z,20.23
2019-06-07T21:44:19.500Z,20.11
2019-06-07T21:46:51.176Z,19.98
2019-06-07T21:49:22.949Z,19.83
2019-06-07T21:51:54.732Z,19.75
2019-06-07T21:54:26.511Z,19.79
2019-06-07T21:56:58.089Z,19.81
2019-06-07T21:59:29.751Z,19.83
2019-06-07T22:02:03.125Z,19.80
2019-06-07T22:04:34.734Z,19.77
2019-06-07T22:07:07.901Z,19.70
2019-06-07T22:09:39.516Z,19.70
2019-06-07T22:12:12.099Z,19.71
2019-06-07T22:14:43.688Z,19.69
2019-06-07T22:17:15.359Z,19.65
2019-06-07T22:19:46.827Z,19.62
2019-06-07T22:22:18.503Z,19.59
2019-06-07T22:24:50.280Z,19.57
2019-06-07T22:27:22.058Z,19.95
2019-06-07T22:29:53.727Z,19.94
2019-06-07T22:32:25.410Z,19.94
2019-06-07T22:34:57.179Z,20.04
2019-06-07T22:37:28.857Z,20.11
2019-06-07T22:40:00.640Z,20.12
2019-06-07T22:42:32.526Z,20.07
2019-06-07T22:45:05.407Z,20.00
2019-06-07T22:47:36.888Z,19.95
2019-06-07T22:50:10.678Z,19.92
2019-06-07T22:52:42.275Z,19.86
2019-06-07T22:55:15.882Z,19.79
2019-06-07T22:57:59.851Z,19.73
2019-06-07T23:00:36.218Z,19.68
2019-06-07T23:03:08.513Z,19.64
2019-06-07T23:05:40.385Z,19.52
2019-06-07T23:08:13.085Z,19.47
2019-06-07T23:10:44.756Z,19.43
2019-06-07T23:13:17.841Z,19.35
2019-06-07T23:15:49.340Z,19.25
2019-06-07T23:18:21.112Z,19.16
2019-06-07T23:20:52.891Z,19.09
2019-06-07T23:23:24.667Z,18.98
2019-06-07T23:25:56.235Z,18.91
2019-06-07T23:28:27.911Z,18.80
2019-06-07T23:30:59.591Z,18.94
2019-06-07T23:33:31.382Z,18.91
2019-06-07T23:36:03.262Z,18.96
2019-06-07T23:38:35.025Z,18.93
2019-06-07T23:41:06.696Z,18.94
2019-06-07T23:43:38.475Z,18.93
2019-06-07T23:46:11.422Z,18.89
2019-06-07T23:48:43.351Z,18.81
2019-06-07T23:51:15.605Z,18.74
2019-06-07T23:53:47.312Z,18.68
2019-06-07T23:56:20.417Z,18.70
2019-06-07T23:58:52.199Z,18.66
